Time;durP1;ratioP1;P1;durP2;ratioP2;P2;SDS_P1;SDS_P2;PMS_P1;PMS_P2;Temp;Humidity;BMP_temperature;BMP_pressure;BME280_temperature;BME280_humidity;BME280_pressure;Samples;Min_cycle;Max_cycle;Signal;HPM_P1;HPM_P2
2022/04/25 00:01:05;;;;;;;11.33;5.73;;;;;;;7.93;79.10;101088.66;5050310;28;20198;-67
2022/04/25 00:03:30;;;;;;;11.13;6.03;;;;;;;7.96;78.73;101090.44;5050604;28;20232;-67
2022/04/25 00:05:56;;;;;;;9.37;5.37;;;;;;;7.99;78.21;101085.47;5051220;28;20244;-67
2022/04/25 00:08:21;;;;;;;10.27;5.90;;;;;;;7.98;78.11;101091.38;5055345;28;20199;-66
2022/04/25 00:10:47;;;;;;;10.73;6.00;;;;;;;8.01;78.14;101094.88;5050614;28;20273;-67
2022/04/25 00:13:14;;;;;;;7.47;5.20;;;;;;;7.98;78.12;101086.28;5051999;28;20217;-67
2022/04/25 00:15:40;;;;;;;11.93;5.30;;;;;;;7.98;78.19;101089.72;5053478;28;20205;-67
2022/04/25 00:18:06;;;;;;;9.37;5.53;;;;;;;7.95;78.34;101097.25;5052003;28;20209;-67
2022/04/25 00:20:31;;;;;;;8.67;5.40;;;;;;;7.94;78.28;101097.19;5050560;28;20189;-68
2022/04/25 00:23:00;;;;;;;8.97;5.97;;;;;;;7.94;78.12;101102.28;5054021;28;20182;-67
2022/04/25 00:25:26;;;;;;;9.13;5.27;;;;;;;7.94;78.36;101108.28;5050830;28;20547;-67
2022/04/25 00:27:51;;;;;;;11.37;5.80;;;;;;;7.91;78.63;101105.59;5053443;28;20190;-68
2022/04/25 00:30:17;;;;;;;10.13;5.50;;;;;;;7.93;78.75;101106.50;5052873;28;20193;-67
2022/04/25 00:32:42;;;;;;;10.30;5.43;;;;;;;7.95;78.23;101106.56;5055758;28;20201;-67
2022/04/25 00:35:08;;;;;;;10.90;5.63;;;;;;;7.95;77.52;101112.53;5052275;28;20206;-67
2022/04/25 00:37:33;;;;;;;7.87;5.00;;;;;;;7.89;77.78;101108.91;5050719;28;20214;-67
2022/04/25 00:39:59;;;;;;;6.67;5.13;;;;;;;7.87;77.81;101111.41;5051560;28;20639;-66
2022/04/25 00:42:25;;;;;;;9.93;5.17;;;;;;;7.89;77.17;101109.78;5046909;28;20198;-67
2022/04/25 00:44:50;;;;;;;7.43;5.13;;;;;;;7.83;78.09;101109.56;5049682;28;20198;-67
2022/04/25 00:47:16;;;;;;;10.93;5.50;;;;;;;7.85;77.42;101114.72;5051367;28;20237;-67
2022/04/25 00:49:41;;;;;;;8.20;4.63;;;;;;;7.83;77.85;101113.81;5048627;28;20181;-67
2022/04/25 00:52:07;;;;;;;8.93;4.63;;;;;;;7.79;77.34;101117.06;5052979;28;20182;-67
2022/04/25 00:54:33;;;;;;;7.87;4.33;;;;;;;7.79;76.83;101115.38;5049308;28;20272;-67
2022/04/25 00:56:59;;;;;;;6.37;4.73;;;;;;;7.82;77.53;101115.47;5050020;28;20212;-67
2022/04/25 00:59:25;;;;;;;5.93;4.47;;;;;;;7.81;77.01;101115.44;5049950;28;20663;-67
2022/04/25 01:01:54;;;;;;;6.43;4.80;;;;;;;7.77;77.36;101122.09;5054257;28;20189;-67
2022/04/25 01:04:20;;;;;;;9.33;4.50;;;;;;;7.70;77.58;101112.50;5049943;28;20185;-67
2022/04/25 01:06:46;;;;;;;12.03;5.50;;;;;;;7.72;76.58;101115.97;5053864;28;21040;-67
2022/04/25 01:09:11;;;;;;;8.70;4.57;;;;;;;7.72;76.86;101117.66;5053610;28;20265;-67
2022/04/25 01:11:36;;;;;;;8.13;4.53;;;;;;;7.74;76.93;101116.88;5052064;28;20201;-66
2022/04/25 01:14:16;;;;;;;8.80;4.67;;;;;;;7.73;76.69;101119.38;5047887;28;20221;-67
2022/04/25 01:16:42;;;;;;;7.17;4.23;;;;;;;7.70;77.70;101125.25;5051510;28;20713;-66
2022/04/25 01:19:07;;;;;;;6.33;4.43;;;;;;;7.68;77.18;101114.13;5053513;28;20185;-67
2022/04/25 01:21:41;;;;;;;11.87;4.70;;;;;;;7.72;76.86;101117.66;5053834;28;20280;-67
2022/04/25 01:29:41;;;;;;;8.40;4.33;;;;;;;7.74;76.82;101114.34;5048462;28;20197;-67
2022/04/25 01:32:07;;;;;;;6.53;4.20;;;;;;;7.71;76.53;101119.34;5052045;28;20185;-67
2022/04/25 01:34:33;;;;;;;9.37;4.30;;;;;;;7.73;76.97;101120.25;5052240;28;20212;-67
2022/04/25 01:36:58;;;;;;;8.23;4.57;;;;;;;7.67;76.63;101119.19;5049543;28;20808;-67
2022/04/25 01:39:24;;;;;;;9.47;4.20;;;;;;;7.69;76.47;101118.41;5048156;28;20194;-67
2022/04/25 01:41:49;;;;;;;8.07;4.10;;;;;;;7.64;76.58;101127.59;5049071;28;20190;-67
2022/04/25 01:44:14;;;;;;;8.37;4.30;;;;;;;7.66;77.14;101130.19;5046974;28;20204;-67
2022/04/25 01:46:40;;;;;;;7.67;3.80;;;;;;;7.68;76.64;101121.78;5050889;28;20213;-67
2022/04/25 01:49:05;;;;;;;7.97;4.50;;;;;;;7.71;76.81;101118.47;5051384;28;20202;-67
2022/04/25 01:51:32;;;;;;;7.40;4.70;;;;;;;7.65;77.35;101118.28;5050929;28;20205;-67
2022/04/25 01:53:57;;;;;;;8.80;4.30;;;;;;;7.67;76.82;101130.25;5051553;28;20186;-67
2022/04/25 01:56:23;;;;;;;6.93;4.50;;;;;;;7.68;76.73;101124.34;5048572;28;20593;-67
2022/04/25 01:58:48;;;;;;;8.13;4.70;;;;;;;7.67;77.00;101131.91;5049302;28;20181;-67
2022/04/25 02:01:13;;;;;;;10.40;4.60;;;;;;;7.65;76.72;101131.84;5053080;28;20208;-67
2022/04/25 02:03:40;;;;;;;8.33;4.17;;;;;;;7.65;76.28;101139.50;5050704;28;20192;-67
2022/04/25 02:06:05;;;;;;;7.20;4.27;;;;;;;7.65;77.33;101139.50;5051268;28;20991;-67
2022/04/25 02:08:31;;;;;;;6.40;3.83;;;;;;;7.58;77.69;101132.47;5051011;28;20196;-67
2022/04/25 02:13:40;;;;;;;8.57;4.03;;;;;;;7.66;75.95;101130.19;5049434;28;20190;-67
2022/04/25 02:16:05;;;;;;;4.93;3.53;;;;;;;7.63;76.11;101142.81;5049044;28;20285;-67
2022/04/25 02:18:31;;;;;;;12.37;4.43;;;;;;;7.65;75.69;101142.06;5051423;28;20202;-67
2022/04/25 02:20:56;;;;;;;7.23;4.83;;;;;;;7.59;76.45;101138.41;5051240;28;20192;-67
2022/04/25 02:23:21;;;;;;;8.10;3.80;;;;;;;7.62;76.47;101138.53;5049277;28;20196;-66
2022/04/25 02:25:47;;;;;;;7.57;3.67;;;;;;;7.61;76.28;101147.84;5048848;28;20206;-67
2022/04/25 02:28:12;;;;;;;7.33;4.20;;;;;;;7.55;76.33;101146.78;5047569;28;20186;-67
2022/04/25 02:30:37;;;;;;;7.47;3.90;;;;;;;7.52;76.33;101141.56;5047739;28;20182;-67
2022/04/25 02:33:03;;;;;;;6.53;3.97;;;;;;;7.46;76.47;101147.31;5052137;28;20208;-67
2022/04/25 02:35:28;;;;;;;6.80;3.53;;;;;;;7.47;76.69;101145.63;5050810;28;20578;-67
2022/04/25 02:37:53;;;;;;;8.70;4.17;;;;;;;7.43;76.75;101142.13;5051178;28;20239;-68
2022/04/25 02:40:19;;;;;;;6.20;4.10;;;;;;;7.43;76.17;101147.22;5046831;28;20219;-67
2022/04/25 02:42:44;;;;;;;8.13;3.83;;;;;;;7.46;76.74;101147.31;5046538;28;20193;-67
2022/04/25 02:45:11;;;;;;;7.70;4.13;;;;;;;7.45;76.81;101145.56;5049049;28;20194;-67
2022/04/25 02:47:36;;;;;;;5.20;4.10;;;;;;;7.45;77.01;101147.25;5045715;28;20303;-67
2022/04/25 02:50:02;;;;;;;7.50;4.27;;;;;;;7.34;77.12;101151.09;5049331;28;20210;-67
2022/04/25 02:52:27;;;;;;;6.53;3.67;;;;;;;7.36;76.79;101157.09;5049534;28;20186;-67
2022/04/25 02:54:53;;;;;;;5.33;3.73;;;;;;;7.40;76.27;101147.09;5047050;28;20198;-67
2022/04/25 02:57:19;;;;;;;5.77;4.20;;;;;;;7.41;76.68;101145.41;5054308;28;20216;-67
2022/04/25 02:59:44;;;;;;;9.47;4.20;;;;;;;7.42;76.58;101142.91;5048914;28;20236;-67
2022/04/25 03:02:10;;;;;;;7.53;4.30;;;;;;;7.44;76.19;101142.97;5049494;28;20267;-67
2022/04/25 03:04:36;;;;;;;8.83;5.03;;;;;;;7.41;76.94;101148.81;5048834;28;20182;-66
2022/04/25 03:07:02;;;;;;;10.03;4.73;;;;;;;7.35;76.58;101143.50;5048698;28;20231;-67
2022/04/25 03:09:28;;;;;;;6.87;4.67;;;;;;;7.39;76.65;101139.38;5048288;28;20340;-66
2022/04/25 03:11:53;;;;;;;7.43;4.93;;;;;;;7.34;77.05;101140.91;5047978;28;20499;-67
2022/04/25 03:14:18;;;;;;;8.73;4.80;;;;;;;7.33;77.25;101142.56;5052669;28;20355;-67
2022/04/25 03:16:44;;;;;;;10.67;4.90;;;;;;;7.32;77.78;101145.09;5049458;28;20244;-67
2022/04/25 03:19:09;;;;;;;7.67;4.33;;;;;;;7.32;77.22;101138.28;5048157;28;20194;-67
2022/04/25 03:21:34;;;;;;;10.40;4.80;;;;;;;7.33;76.83;101144.25;5047647;28;20201;-67
2022/04/25 03:24:02;;;;;;;10.33;4.90;;;;;;;7.31;77.87;101146.75;5052586;28;20194;-66
2022/04/25 03:26:28;;;;;;;9.23;4.67;;;;;;;7.34;77.33;101136.69;5056430;28;20621;-67
2022/04/25 03:28:53;;;;;;;8.60;5.03;;;;;;;7.31;77.49;101144.19;5052697;28;20190;-67
2022/04/25 03:31:19;;;;;;;8.53;4.33;;;;;;;7.33;78.03;101142.56;5052686;28;20669;-67
2022/04/25 03:33:44;;;;;;;7.20;4.67;;;;;;;7.30;77.28;101137.38;5052555;28;20213;-67
2022/04/25 03:36:09;;;;;;;5.97;4.40;;;;;;;7.34;77.56;101131.59;5066282;28;20217;-67
2022/04/25 03:38:35;;;;;;;9.83;4.33;;;;;;;7.35;77.03;101128.22;5051959;28;20964;-67
2022/04/25 03:41:01;;;;;;;8.87;4.63;;;;;;;7.33;77.69;101128.97;5051389;28;20819;-67
2022/04/25 03:43:26;;;;;;;7.10;4.70;;;;;;;7.34;77.52;101128.16;5056981;28;20197;-67
2022/04/25 03:45:52;;;;;;;9.40;4.83;;;;;;;7.36;77.35;101126.53;5051436;28;20284;-67
2022/04/25 03:48:17;;;;;;;7.63;4.73;;;;;;;7.32;78.58;101128.09;5051256;28;20647;-67
2022/04/25 03:50:42;;;;;;;7.67;4.43;;;;;;;7.36;78.54;101135.06;5050907;28;20888;-67
2022/04/25 03:53:10;;;;;;;6.90;4.80;;;;;;;7.33;78.48;101140.00;5053749;28;20545;-67
2022/04/25 03:58:21;;;;;;;7.73;4.93;;;;;;;7.33;77.53;101141.72;5047850;28;20198;-67
2022/04/25 04:00:47;;;;;;;7.30;5.40;;;;;;;7.30;78.11;101137.38;5052639;28;20193;-67
2022/04/25 04:03:14;;;;;;;8.53;4.83;;;;;;;7.29;78.20;101139.88;5052776;28;20565;-67
2022/04/25 04:05:41;;;;;;;9.47;4.90;;;;;;;7.27;77.88;101132.16;5055612;28;20193;-67
2022/04/25 04:08:07;;;;;;;8.93;4.63;;;;;;;7.26;78.39;101143.16;5052777;28;20194;-67
2022/04/25 04:10:32;;;;;;;8.17;4.73;;;;;;;7.26;78.69;101155.03;5052071;28;20196;-67
2022/04/25 04:12:59;;;;;;;8.30;5.00;;;;;;;7.25;78.15;101159.25;5050121;28;20256;-67
2022/04/25 04:15:25;;;;;;;8.70;4.97;;;;;;;7.25;78.78;101160.94;5054118;28;20206;-67
2022/04/25 04:17:50;;;;;;;10.67;4.97;;;;;;;7.23;78.14;101165.13;5048853;28;20324;-67
2022/04/25 04:20:15;;;;;;;9.37;5.03;;;;;;;7.21;78.50;101164.16;5050836;28;20189;-66
2022/04/25 04:22:41;;;;;;;9.03;4.80;;;;;;;7.18;77.96;101169.16;5051461;28;20202;-67
2022/04/25 04:25:08;;;;;;;8.60;5.60;;;;;;;7.18;78.87;101172.56;5050848;28;20186;-67
2022/04/25 04:27:34;;;;;;;7.63;4.70;;;;;;;7.23;78.30;101177.84;5050818;28;20351;-67
2022/04/25 04:30:07;;;;;;;7.63;5.53;;;;;;;7.21;78.43;101175.22;5050692;28;20272;-68
2022/04/25 04:32:33;;;;;;;12.93;5.30;;;;;;;7.22;78.51;101174.41;5053133;28;20197;-67
2022/04/25 04:35:00;;;;;;;9.83;5.07;;;;;;;7.24;78.07;101177.88;5052736;28;20213;-67
2022/04/25 04:37:26;;;;;;;11.57;5.60;;;;;;;7.13;78.52;101173.19;5053570;28;20217;-67
2022/04/25 04:40:28;;;;;;;7.23;5.50;;;;;;;7.10;78.33;101179.03;5050738;28;20202;-66
2022/04/25 04:42:38;;;;;;;10.80;5.70;;;;;;;7.13;78.92;101178.28;5052705;28;20197;-66
2022/04/25 04:45:03;;;;;;;9.87;5.47;;;;;;;7.11;79.02;101183.34;5051842;28;20243;-67
2022/04/25 04:47:33;;;;;;;11.17;5.10;;;;;;;7.14;78.57;101183.44;5046284;28;20225;-67
2022/04/25 04:49:58;;;;;;;7.83;5.43;;;;;;;7.13;79.13;101184.25;5051765;28;20201;-66
2022/04/25 04:52:23;;;;;;;7.80;5.37;;;;;;;7.20;79.00;101193.88;5051821;28;20197;-66
2022/04/25 04:54:49;;;;;;;9.70;5.10;;;;;;;7.24;79.30;101194.84;5049377;28;20213;-66
2022/04/25 04:57:14;;;;;;;9.30;5.20;;;;;;;7.42;78.32;101198.94;5048595;28;20214;-66
2022/04/25 04:59:39;;;;;;;8.07;4.60;;;;;;;7.51;77.92;101194.19;5009522;28;20316;-67
2022/04/25 05:02:05;;;;;;;10.60;5.17;;;;;;;7.61;77.36;101203.06;5053127;28;20197;-66
2022/04/25 05:04:31;;;;;;;8.43;4.87;;;;;;;7.57;76.88;101197.00;5052656;28;20213;-67
2022/04/25 05:06:56;;;;;;;7.43;4.93;;;;;;;7.53;76.82;101202.78;5047885;28;20702;-67
2022/04/25 05:09:22;;;;;;;12.57;4.93;;;;;;;7.51;76.80;101199.28;5050321;28;20271;-68
2022/04/25 05:11:47;;;;;;;7.63;4.27;;;;;;;7.51;75.92;101209.47;5049863;28;20198;-67
2022/04/25 05:14:14;;;;;;;9.80;5.20;;;;;;;7.42;77.27;101206.59;5049462;28;20301;-67
2022/04/25 05:16:40;;;;;;;9.27;5.10;;;;;;;7.41;77.22;101212.50;5053234;28;20213;-67
2022/04/25 05:19:05;;;;;;;8.50;5.07;;;;;;;7.41;76.53;101217.59;5047835;28;20250;-67
2022/04/25 05:21:30;;;;;;;7.37;4.87;;;;;;;7.47;76.48;101224.59;5047749;28;20205;-67
2022/04/25 05:23:56;;;;;;;7.40;4.87;;;;;;;7.50;76.18;101224.69;5053432;28;20571;-67
2022/04/25 05:26:21;;;;;;;7.27;4.40;;;;;;;7.51;76.50;101231.56;5049457;28;20582;-67
2022/04/25 05:28:47;;;;;;;7.13;5.10;;;;;;;7.50;76.46;101228.13;5047538;28;20701;-67
2022/04/25 05:31:13;;;;;;;8.73;4.37;;;;;;;7.45;76.69;101236.41;5048736;28;20908;-67
2022/04/25 05:33:39;;;;;;;7.90;4.50;;;;;;;7.50;76.22;101240.00;5049396;28;20221;-67
2022/04/25 05:36:05;;;;;;;8.03;4.87;;;;;;;7.50;76.06;101230.69;5062145;28;20248;-67
2022/04/25 05:38:30;;;;;;;7.00;4.43;;;;;;;7.57;75.14;101240.31;5049246;28;20658;-67
2022/04/25 05:40:56;;;;;;;8.23;4.00;;;;;;;7.58;75.00;101243.69;5051602;28;20193;-66
2022/04/25 05:43:24;;;;;;;7.90;4.63;;;;;;;7.69;75.46;101243.28;5047630;28;20192;-66
2022/04/25 05:45:49;;;;;;;7.10;4.43;;;;;;;7.66;74.29;101238.09;5047800;28;20216;-66
2022/04/25 05:53:44;;;;;;;6.63;4.43;;;;;;;7.77;74.87;101244.44;5029886;28;20205;-66
2022/04/25 05:56:10;;;;;;;8.63;4.27;;;;;;;7.91;73.57;101240.72;5047447;28;20221;-66
2022/04/25 05:58:35;;;;;;;5.50;3.90;;;;;;;8.08;74.11;101246.41;5040408;28;20268;-67
2022/04/25 06:01:00;;;;;;;7.40;3.83;;;;;;;8.05;72.71;101249.72;5048140;28;20304;-66
2022/04/25 06:03:26;;;;;;;7.00;4.50;;;;;;;8.25;71.44;101258.13;5048633;28;20193;-66
2022/04/25 06:05:54;;;;;;;7.17;4.20;;;;;;;8.42;72.05;101250.22;5047767;28;20205;-66
2022/04/25 06:08:19;;;;;;;6.53;3.83;;;;;;;8.42;71.79;101257.00;5052481;28;20280;-66
2022/04/25 06:10:44;;;;;;;8.60;4.40;;;;;;;8.61;70.96;101254.28;5048694;28;20772;-66
2022/04/25 06:13:10;;;;;;;7.50;3.80;;;;;;;8.56;69.79;101250.69;5048551;28;20190;-66
2022/04/25 06:15:35;;;;;;;6.93;3.50;;;;;;;8.62;69.61;101258.56;5050243;28;20209;-67
2022/04/25 06:18:00;;;;;;;8.10;3.57;;;;;;;9.05;68.41;101254.91;5053306;28;20188;-67
2022/04/25 06:20:30;;;;;;;8.13;4.30;;;;;;;9.29;67.14;101247.13;5051561;28;20200;-67
2022/04/25 06:22:58;;;;;;;7.70;3.47;;;;;;;9.43;66.81;101258.66;5048770;28;20220;-67
2022/04/25 06:25:25;;;;;;;9.87;4.33;;;;;;;9.67;65.97;101247.47;5050689;28;20188;-66
2022/04/25 06:27:50;;;;;;;7.53;3.60;;;;;;;9.87;65.27;101253.16;5052770;28;20212;-66
2022/04/25 06:30:16;;;;;;;6.20;3.40;;;;;;;9.83;66.37;101259.91;5051184;28;20694;-67
2022/04/25 06:32:41;;;;;;;7.57;3.67;;;;;;;10.00;65.42;101253.53;5051455;28;20255;-67
2022/04/25 06:35:08;;;;;;;6.37;3.20;;;;;;;10.11;64.46;101259.00;5048485;28;20217;-67
2022/04/25 06:37:33;;;;;;;8.70;3.20;;;;;;;10.07;64.24;101263.19;5048594;28;20205;-67
2022/04/25 06:39:59;;;;;;;6.13;3.50;;;;;;;10.28;64.23;101265.47;5047156;28;20186;-67
2022/04/25 06:42:25;;;;;;;6.83;2.73;;;;;;;10.12;63.40;101258.16;5048151;28;20190;-67
2022/04/25 06:44:51;;;;;;;6.97;3.33;;;;;;;10.24;63.91;101263.63;5051491;28;20205;-67
2022/04/25 06:47:17;;;;;;;7.03;3.30;;;;;;;10.53;64.19;101255.91;5055250;28;20571;-66
2022/04/25 06:49:42;;;;;;;5.23;3.40;;;;;;;10.53;63.87;101257.59;5049606;28;20228;-67
2022/04/25 06:52:09;;;;;;;6.43;3.30;;;;;;;10.79;63.36;101266.81;5043021;28;20725;-66
2022/04/25 06:54:35;;;;;;;5.63;2.83;;;;;;;10.81;63.29;101258.34;5050587;28;20256;-66
2022/04/25 06:57:02;;;;;;;5.37;2.67;;;;;;;10.95;62.62;101262.09;5055523;28;21048;-66
2022/04/25 06:59:28;;;;;;;5.83;2.93;;;;;;;11.21;62.07;101258.47;5053133;28;20200;-68
2022/04/25 07:01:54;;;;;;;5.73;2.73;;;;;;;11.30;60.33;101265.50;5053952;28;20224;-66
2022/04/25 07:04:19;;;;;;;5.60;2.50;;;;;;;11.40;60.29;101262.31;5054034;28;20271;-66
2022/04/25 07:06:45;;;;;;;5.03;2.60;;;;;;;11.46;60.60;101265.88;5058053;28;20690;-66
2022/04/25 07:09:14;;;;;;;5.83;2.83;;;;;;;11.71;60.51;101267.31;5050286;28;20761;-66
2022/04/25 07:11:44;;;;;;;3.90;2.80;;;;;;;11.69;59.12;101264.72;5050321;28;20592;-68
2022/04/25 07:14:15;;;;;;;4.87;2.80;;;;;;;11.76;58.93;101261.44;5053617;28;20227;-68
2022/04/25 07:16:44;;;;;;;5.57;2.63;;;;;;;12.06;58.32;101267.22;5054106;28;20720;-68
2022/04/25 07:19:10;;;;;;;5.30;2.40;;;;;;;12.34;58.96;101269.47;5055030;28;20232;-69
2022/04/25 07:29:48;;;;;;;4.53;2.93;;;;;;;12.61;57.70;101262.28;5049778;28;20194;-68
2022/04/25 07:32:18;;;;;;;5.83;2.77;;;;;;;12.75;57.46;101270.22;5054051;28;20197;-68
2022/04/25 07:34:46;;;;;;;4.17;2.60;;;;;;;12.95;55.32;101274.88;5044890;28;20217;-68
2022/04/25 07:37:12;;;;;;;5.27;2.93;;;;;;;13.07;54.64;101268.25;5052687;28;20232;-69
2022/04/25 07:39:37;;;;;;;4.97;2.53;;;;;;;13.24;55.12;101272.81;5049845;28;20320;-68
2022/04/25 07:42:04;;;;;;;4.00;2.93;;;;;;;13.07;54.96;101269.09;5052199;28;20312;-68
2022/04/25 07:44:29;;;;;;;6.17;3.10;;;;;;;13.31;55.89;101274.59;5051106;28;20208;-68
2022/04/25 07:46:54;;;;;;;5.20;2.80;;;;;;;13.24;55.21;101269.34;5053025;28;20201;-68
2022/04/25 07:49:20;;;;;;;4.30;2.60;;;;;;;13.51;55.18;101274.91;5051396;28;20593;-68
2022/04/25 07:51:47;;;;;;;7.17;2.93;;;;;;;13.71;53.79;101276.06;5051458;28;20300;-68
2022/04/25 07:54:14;;;;;;;5.73;2.90;;;;;;;13.75;53.30;101276.13;5046720;28;20666;-68
2022/04/25 07:56:42;;;;;;;3.33;2.53;;;;;;;14.06;52.17;101278.25;5049866;28;20220;-69
2022/04/25 07:59:08;;;;;;;4.97;2.90;;;;;;;14.17;51.42;101275.78;5051127;28;20193;-69
2022/04/25 08:01:34;;;;;;;4.20;2.80;;;;;;;14.29;51.31;101282.00;5063464;28;20193;-69
2022/04/25 08:04:00;;;;;;;4.07;2.57;;;;;;;14.28;50.69;101281.97;5069529;28;20580;-69
2022/04/25 08:06:26;;;;;;;4.40;2.60;;;;;;;14.53;50.06;101276.22;5062260;28;20282;-69
2022/04/25 08:08:53;;;;;;;4.40;2.90;;;;;;;14.47;50.30;101281.31;5049707;28;20201;-68
2022/04/25 08:11:19;;;;;;;5.73;2.90;;;;;;;14.83;50.01;101273.97;5058766;28;20189;-68
2022/04/25 08:19:13;;;;;;;3.87;2.40;;;;;;;15.05;49.25;101283.63;5048515;28;20189;-69
2022/04/25 08:21:43;;;;;;;4.60;2.20;;;;;;;15.35;50.50;101283.88;5053105;28;20266;-68
2022/04/25 08:24:11;;;;;;;4.47;2.50;;;;;;;15.03;48.00;101285.31;5051965;28;20182;-68
2022/04/25 08:26:37;;;;;;;5.90;2.77;;;;;;;15.21;48.40;101282.88;5050330;28;20226;-68
2022/04/25 08:29:03;;;;;;;4.70;2.77;;;;;;;15.51;47.50;101278.81;5052704;28;20254;-68
2022/04/25 08:31:28;;;;;;;5.20;2.87;;;;;;;15.49;48.53;101284.81;5051324;28;20193;-69
2022/04/25 08:33:55;;;;;;;4.87;2.50;;;;;;;15.62;48.43;101287.50;5059516;28;20591;-69
2022/04/25 08:36:21;;;;;;;5.13;2.53;;;;;;;16.13;46.75;101289.47;5050193;28;20778;-69
2022/04/25 08:38:47;;;;;;;4.77;2.60;;;;;;;16.41;48.91;101284.44;5033229;28;20194;-69
2022/04/25 08:41:15;;;;;;;5.40;2.87;;;;;;;16.65;46.45;101287.09;5052594;28;20185;-69
2022/04/25 08:43:41;;;;;;;5.33;2.70;;;;;;;16.39;47.95;101290.44;5056857;28;20726;-69
2022/04/25 08:46:11;;;;;;;4.07;2.50;;;;;;;16.52;46.75;101294.78;5048904;28;20232;-69
2022/04/25 08:48:37;;;;;;;5.10;2.63;;;;;;;16.72;46.61;101293.13;5049760;28;20210;-68
2022/04/25 08:51:04;;;;;;;4.03;2.67;;;;;;;16.88;45.61;101287.97;5048739;28;20202;-69
2022/04/25 08:53:31;;;;;;;4.43;2.50;;;;;;;17.02;44.97;101291.44;5051424;28;20243;-68
2022/04/25 08:55:56;;;;;;;4.43;2.87;;;;;;;17.04;43.73;101297.47;5048434;28;20221;-69
2022/04/25 08:58:23;;;;;;;3.67;2.53;;;;;;;16.93;45.14;101303.50;5050478;28;20202;-68
2022/04/25 09:00:48;;;;;;;3.43;2.50;;;;;;;17.05;45.18;101301.81;5049232;28;20566;-69
2022/04/25 09:03:14;;;;;;;5.83;3.00;;;;;;;17.04;45.42;101307.81;5049160;28;20193;-69
2022/04/25 09:05:40;;;;;;;4.97;2.70;;;;;;;17.13;45.04;101299.22;5049070;28;20185;-69
2022/04/25 09:08:07;;;;;;;3.70;2.43;;;;;;;16.93;43.59;101296.59;5043905;28;20190;-69
2022/04/25 09:10:33;;;;;;;3.57;2.30;;;;;;;17.57;43.25;101303.53;5053433;28;20216;-69
2022/04/25 09:12:59;;;;;;;5.87;3.40;;;;;;;17.59;43.16;101306.97;5050131;28;20265;-68
2022/04/25 09:15:25;;;;;;;5.70;2.60;;;;;;;17.92;43.46;101306.03;5053292;28;20770;-69
2022/04/25 09:17:53;;;;;;;4.27;2.40;;;;;;;17.88;42.60;101294.81;5048364;28;20189;-69
2022/04/25 09:20:20;;;;;;;4.13;2.30;;;;;;;18.01;41.54;101296.47;5050800;28;20193;-69
2022/04/25 09:22:47;;;;;;;4.00;2.17;;;;;;;18.39;42.34;101292.06;5048653;28;20197;-69
2022/04/25 09:25:15;;;;;;;6.07;2.30;;;;;;;18.28;41.49;101295.53;5048749;28;20271;-68
2022/04/25 09:27:41;;;;;;;3.90;2.43;;;;;;;18.51;40.98;101304.09;5049603;28;20307;-69
2022/04/25 09:30:21;;;;;;;4.13;2.60;;;;;;;18.81;40.29;101302.16;5052277;28;20229;-69
2022/04/25 09:32:48;;;;;;;5.47;2.33;;;;;;;18.80;40.49;101302.16;5047004;28;20216;-69
2022/04/25 09:35:30;;;;;;;3.83;2.20;;;;;;;19.06;40.13;101298.50;5047624;28;20213;-68
2022/04/25 09:37:57;;;;;;;5.37;2.67;;;;;;;19.07;40.03;101295.03;5049310;28;20201;-66
2022/04/25 09:40:24;;;;;;;5.80;2.47;;;;;;;19.15;40.28;101297.56;5049807;28;20322;-68
2022/04/25 09:43:08;;;;;;;4.37;3.03;;;;;;;19.05;42.28;101296.78;5049804;28;20194;-69
2022/04/25 09:45:37;;;;;;;6.00;2.90;;;;;;;19.24;41.30;101289.72;5049910;28;20197;-69
2022/04/25 09:48:11;;;;;;;3.40;2.63;;;;;;;19.31;40.49;101300.06;5048693;28;20182;-66
2022/04/25 09:50:38;;;;;;;4.83;2.70;;;;;;;19.50;40.13;101298.16;5049067;28;20181;-66
2022/04/25 09:53:05;;;;;;;5.60;2.60;;;;;;;19.70;38.86;101304.88;5048903;28;20700;-69
2022/04/25 09:55:34;;;;;;;6.53;2.63;;;;;;;19.91;40.05;101296.88;5049515;28;20283;-68
2022/04/25 09:58:12;;;;;;;5.00;2.97;;;;;;;19.81;40.88;101299.56;5048012;28;20565;-69
2022/04/25 10:00:38;;;;;;;4.40;2.73;;;;;;;19.64;40.41;101298.88;5046213;28;20243;-67
2022/04/25 10:03:08;;;;;;;3.30;2.50;;;;;;;20.18;39.84;101304.34;5050363;28;20698;-66
2022/04/25 10:05:47;;;;;;;4.53;2.57;;;;;;;20.43;39.15;101294.50;5046219;28;20600;-66
2022/04/25 10:08:15;;;;;;;9.30;2.40;;;;;;;20.81;38.49;101293.06;5049328;28;20185;-66
2022/04/25 10:10:46;;;;;;;3.80;2.37;;;;;;;20.43;38.54;101310.97;5064579;28;20909;-66
2022/04/25 10:13:15;;;;;;;3.80;2.57;;;;;;;20.89;38.46;101304.25;4970631;28;20216;-76
2022/04/25 10:15:41;;;;;;;4.80;3.00;;;;;;;20.52;37.63;101307.38;4933850;28;20239;-75
2022/04/25 10:18:07;;;;;;;6.40;3.10;;;;;;;20.34;39.93;101302.41;4976204;28;20245;-75
2022/04/25 10:20:36;;;;;;;5.53;2.57;;;;;;;20.75;37.65;101307.91;4971186;28;20204;-76
2022/04/25 10:23:09;;;;;;;4.17;3.00;;;;;;;20.49;37.25;101310.88;4970318;28;20181;-76
2022/04/25 10:25:36;;;;;;;5.30;3.27;;;;;;;20.86;37.68;101306.03;4954913;28;20666;-78
2022/04/25 10:28:05;;;;;;;4.13;2.80;;;;;;;20.84;37.70;101310.38;4986557;28;20216;-76
2022/04/25 10:30:36;;;;;;;3.40;2.70;;;;;;;21.15;38.33;101306.47;4991319;28;20279;-76
2022/04/25 10:33:48;;;;;;;5.30;2.87;;;;;;;21.08;37.47;101310.03;4967179;28;20586;-74
2022/04/25 10:36:38;;;;;;;4.87;2.70;;;;;;;21.00;39.87;101310.16;4966494;28;20261;-76
2022/04/25 10:39:27;;;;;;;8.23;5.70;;;;;;;21.41;37.53;101306.88;4983180;28;20287;-75
2022/04/25 10:44:36;;;;;;;6.03;3.60;;;;;;;21.41;36.61;101312.06;4972630;28;20240;-76
2022/04/25 10:47:05;;;;;;;4.43;2.63;;;;;;;21.15;36.33;101311.69;4984180;28;20344;-76
2022/04/25 10:49:31;;;;;;;4.03;2.60;;;;;;;21.18;38.35;101303.78;4986720;28;20208;-76
2022/04/25 10:51:57;;;;;;;5.63;2.97;;;;;;;21.21;36.91;101311.56;4973059;28;20712;-79
2022/04/25 10:54:29;;;;;;;4.53;2.80;;;;;;;21.08;38.69;101310.03;4979585;28;20201;-77
2022/04/25 10:57:09;;;;;;;5.27;2.90;;;;;;;21.73;35.37;101302.84;4987500;28;20300;-77
2022/04/25 10:59:37;;;;;;;4.20;2.77;;;;;;;21.37;36.35;101311.28;4969170;28;20226;-77
2022/04/25 11:02:26;;;;;;;3.50;2.40;;;;;;;21.17;37.29;101302.94;4988264;28;20276;-77
2022/04/25 11:05:10;;;;;;;5.60;2.80;;;;;;;21.41;37.31;101320.78;4969280;28;20705;-77
2022/04/25 11:07:37;;;;;;;4.03;2.60;;;;;;;21.70;36.05;101307.25;4981867;28;20227;-77
2022/04/25 11:10:04;;;;;;;7.07;2.60;;;;;;;21.36;36.77;101309.56;4976793;28;20189;-77
2022/04/25 11:12:54;;;;;;;3.17;2.60;;;;;;;21.39;37.33;101311.25;4988125;28;20219;-76
2022/04/25 11:15:42;;;;;;;4.63;3.00;;;;;;;21.33;37.46;101308.78;4971498;28;20261;-77
2022/04/25 11:18:34;;;;;;;4.67;2.67;;;;;;;20.85;37.25;101312.09;4989800;28;20807;-77
2022/04/25 11:21:14;;;;;;;4.33;2.80;;;;;;;21.73;36.67;101309.78;4972876;28;20200;-78
2022/04/25 11:23:42;;;;;;;3.77;2.70;;;;;;;21.49;37.40;101315.41;4968513;28;20265;-77
2022/04/25 11:26:10;;;;;;;3.10;2.63;;;;;;;21.55;36.32;101313.56;4969590;28;20283;-77
2022/04/25 11:28:55;;;;;;;4.07;2.60;;;;;;;21.70;35.48;101321.13;4984806;28;20199;-77
2022/04/25 11:31:23;;;;;;;4.30;2.87;;;;;;;21.56;36.16;101325.72;4968100;28;20193;-77
2022/04/25 11:33:50;;;;;;;4.43;2.63;;;;;;;21.49;38.14;101320.63;4954660;28;20292;-79
2022/04/25 11:36:17;;;;;;;3.87;2.90;;;;;;;21.76;35.35;101322.78;4966808;28;20580;-76
2022/04/25 11:41:29;;;;;;;3.27;2.43;;;;;;;21.14;37.21;101323.81;4969637;28;20219;-77
2022/04/25 11:43:55;;;;;;;3.13;2.30;;;;;;;21.69;35.43;101326.41;4972228;28;20733;-76
2022/04/25 11:46:21;;;;;;;3.87;2.40;;;;;;;21.69;36.35;101326.41;4976197;28;20302;-77
2022/04/25 11:48:49;;;;;;;4.43;2.27;;;;;;;21.58;34.84;101330.91;4988808;28;20275;-76
2022/04/25 11:51:25;;;;;;;4.27;2.63;;;;;;;21.27;37.49;101338.38;4973128;28;20192;-76
2022/04/25 11:53:57;;;;;;;4.20;2.40;;;;;;;21.59;35.57;101336.09;4970327;28;20294;-77
2022/04/25 11:56:23;;;;;;;4.40;2.70;;;;;;;21.53;36.18;101338.81;4972182;28;20233;-76
2022/04/25 11:58:50;;;;;;;2.67;2.47;;;;;;;21.72;36.14;101334.16;4972220;28;20589;-77
2022/04/25 12:01:35;;;;;;;5.17;2.60;;;;;;;22.10;35.45;101336.88;4972669;28;20204;-76
2022/04/25 12:04:20;;;;;;;3.37;2.50;;;;;;;22.19;36.44;101340.19;4972366;28;20379;-75
2022/04/25 12:06:50;;;;;;;4.03;2.20;;;;;;;22.17;34.09;101339.38;4971667;28;20216;-77